Time;durP1;ratioP1;P1;durP2;ratioP2;P2;SDS_P1;SDS_P2;PMS_P1;PMS_P2;Temp;Humidity;BMP_temperature;BMP_pressure;BME280_temperature;BME280_humidity;BME280_pressure;Samples;Min_cycle;Max_cycle;Signal;HPM_P1;HPM_P2
2023/05/15 00:00:12;;;;;;;1.27;1.17;;;15.90;92.70;;;;;;6338829;22;20010;-84
2023/05/15 00:02:38;;;;;;;2.03;1.38;;;15.90;92.80;;;;;;6338524;22;19999;-85
2023/05/15 00:05:05;;;;;;;2.05;1.35;;;15.90;92.80;;;;;;6338464;22;20054;-84
2023/05/15 00:07:31;;;;;;;3.22;1.33;;;15.90;92.80;;;;;;6338657;22;20003;-85
2023/05/15 00:09:57;;;;;;;3.55;1.48;;;15.80;92.80;;;;;;6339096;22;20085;-84
2023/05/15 00:12:22;;;;;;;2.20;1.40;;;15.90;92.90;;;;;;6338643;22;20002;-85
2023/05/15 00:14:48;;;;;;;2.17;1.40;;;15.90;92.90;;;;;;6338650;22;20002;-85
2023/05/15 00:17:13;;;;;;;2.20;1.50;;;15.80;93.00;;;;;;6338606;22;20003;-85
2023/05/15 00:19:39;;;;;;;1.73;1.63;;;15.80;93.10;;;;;;6338271;22;20078;-84
2023/05/15 00:22:05;;;;;;;1.55;1.38;;;15.80;93.10;;;;;;6311385;22;20085;-84
2023/05/15 00:24:31;;;;;;;3.58;1.92;;;15.80;93.00;;;;;;6338614;22;20090;-84
2023/05/15 00:26:58;;;;;;;3.35;2.08;;;15.80;93.10;;;;;;6338541;22;20079;-84
2023/05/15 00:29:23;;;;;;;1.80;1.48;;;15.80;93.10;;;;;;6338789;22;20413;-83
2023/05/15 00:31:49;;;;;;;1.88;1.50;;;15.90;93.20;;;;;;6310449;22;20094;-83
2023/05/15 00:34:15;;;;;;;1.85;1.65;;;15.80;93.20;;;;;;6338131;22;20003;-83
2023/05/15 00:36:40;;;;;;;3.45;1.75;;;15.80;93.20;;;;;;6338342;22;20328;-85
2023/05/15 00:39:06;;;;;;;1.60;1.50;;;15.80;93.30;;;;;;6310587;22;20437;-84
2023/05/15 00:41:33;;;;;;;2.92;1.95;;;15.90;93.30;;;;;;6338583;22;20424;-84
2023/05/15 00:44:00;;;;;;;4.30;2.10;;;15.80;93.30;;;;;;6312292;22;20002;-84
2023/05/15 00:46:31;;;;;;;2.17;1.73;;;15.80;93.30;;;;;;6340034;22;19998;-83
2023/05/15 00:48:57;;;;;;;1.88;1.67;;;15.80;93.40;;;;;;6339829;22;19998;-84
2023/05/15 00:51:25;;;;;;;2.42;1.92;;;15.80;93.40;;;;;;6339934;22;20006;-83
2023/05/15 00:53:51;;;;;;;3.05;1.88;;;15.80;93.50;;;;;;6338620;22;20010;-83
2023/05/15 00:56:17;;;;;;;2.20;1.75;;;15.80;93.50;;;;;;6312167;22;20002;-83
2023/05/15 00:58:46;;;;;;;2.90;2.30;;;15.80;93.50;;;;;;6311975;22;20003;-84
2023/05/15 01:01:16;;;;;;;3.15;1.95;;;15.80;93.60;;;;;;6311944;22;20040;-84
2023/05/15 01:03:45;;;;;;;2.38;2.17;;;15.80;93.60;;;;;;6338728;22;20010;-83
2023/05/15 01:06:11;;;;;;;3.35;2.10;;;15.80;93.60;;;;;;6312142;22;20014;-84
2023/05/15 01:08:38;;;;;;;4.20;2.17;;;15.80;93.60;;;;;;6340339;22;20401;-84
2023/05/15 01:11:07;;;;;;;2.83;2.20;;;15.70;93.60;;;;;;6339723;22;20020;-83
2023/05/15 01:13:32;;;;;;;2.95;1.60;;;15.80;93.70;;;;;;6312138;22;20480;-83
2023/05/15 01:15:58;;;;;;;5.13;2.38;;;15.80;93.70;;;;;;6340193;22;20052;-83
2023/05/15 01:18:31;;;;;;;3.50;1.98;;;15.80;93.70;;;;;;6340229;22;20405;-84
2023/05/15 01:21:24;;;;;;;2.50;1.88;;;15.80;93.70;;;;;;6312823;22;20082;-84
2023/05/15 01:24:27;;;;;;;1.70;1.60;;;15.90;93.80;;;;;;6339338;22;19999;-83
2023/05/15 01:27:17;;;;;;;3.13;2.22;;;15.80;93.80;;;;;;6339306;22;20006;-84
2023/05/15 01:29:49;;;;;;;2.38;2.00;;;15.80;93.80;;;;;;6339861;22;20003;-83
2023/05/15 01:32:33;;;;;;;3.08;2.17;;;15.90;93.80;;;;;;6340043;22;20014;-84
2023/05/15 01:34:58;;;;;;;3.45;2.05;;;15.80;93.70;;;;;;6339340;22;19999;-84
2023/05/15 01:37:27;;;;;;;2.45;1.98;;;15.80;93.70;;;;;;6312069;22;20029;-84
2023/05/15 01:39:59;;;;;;;3.17;2.22;;;15.90;93.80;;;;;;6339460;22;20045;-84
2023/05/15 01:42:32;;;;;;;2.60;2.30;;;15.80;93.80;;;;;;6339568;22;20007;-85
2023/05/15 01:45:03;;;;;;;2.65;2.30;;;15.80;93.90;;;;;;6310422;22;20007;-83
2023/05/15 01:47:44;;;;;;;3.65;2.35;;;15.80;93.90;;;;;;6338910;22;19999;-84
2023/05/15 01:50:14;;;;;;;2.33;1.90;;;15.80;93.90;;;;;;6338640;22;19995;-84
2023/05/15 01:52:42;;;;;;;4.35;2.40;;;15.80;94.00;;;;;;6339328;22;19995;-84
2023/05/15 01:55:09;;;;;;;2.28;2.08;;;15.80;94.00;;;;;;6338581;22;19999;-83
2023/05/15 01:57:36;;;;;;;2.28;2.08;;;15.80;94.00;;;;;;6339193;22;19999;-83
2023/05/15 02:00:03;;;;;;;3.42;2.53;;;15.80;94.00;;;;;;6337712;22;20026;-82
2023/05/15 02:02:29;;;;;;;3.58;2.65;;;15.80;94.00;;;;;;6339246;22;20032;-84
2023/05/15 02:04:55;;;;;;;2.85;2.53;;;15.80;94.00;;;;;;6339101;22;20005;-84
2023/05/15 02:07:22;;;;;;;3.53;2.13;;;15.80;94.00;;;;;;6338868;22;20003;-83
2023/05/15 02:09:50;;;;;;;2.97;2.53;;;15.80;94.00;;;;;;6338858;22;20026;-84
2023/05/15 02:12:16;;;;;;;3.55;2.30;;;15.80;94.10;;;;;;6339346;22;20023;-84
2023/05/15 02:14:44;;;;;;;4.00;2.10;;;15.80;94.10;;;;;;6339550;22;20010;-85
2023/05/15 02:17:10;;;;;;;3.17;2.50;;;15.80;94.10;;;;;;6339804;22;20439;-85
2023/05/15 02:19:35;;;;;;;3.42;2.33;;;15.70;94.20;;;;;;6311327;22;20089;-85
2023/05/15 02:22:01;;;;;;;2.92;2.53;;;15.70;94.20;;;;;;6339700;22;20310;-84
2023/05/15 02:24:27;;;;;;;3.97;2.47;;;15.70;94.20;;;;;;6339887;22;20306;-85
2023/05/15 02:27:07;;;;;;;3.42;2.72;;;15.70;94.20;;;;;;6311991;22;20482;-87
2023/05/15 02:30:06;;;;;;;2.92;2.15;;;15.70;94.20;;;;;;6339382;22;20420;-86
2023/05/15 02:33:02;;;;;;;3.15;2.40;;;15.70;94.20;;;;;;6339668;22;20034;-85
2023/05/15 02:35:32;;;;;;;3.67;2.35;;;15.70;94.20;;;;;;6339592;22;20066;-86
2023/05/15 02:38:01;;;;;;;3.47;2.75;;;15.70;94.20;;;;;;6339443;22;20072;-86
2023/05/15 02:40:29;;;;;;;3.45;3.15;;;15.70;94.20;;;;;;6311779;22;20010;-86
2023/05/15 02:42:56;;;;;;;2.45;2.25;;;15.70;94.30;;;;;;6311394;22;20006;-87
2023/05/15 02:45:23;;;;;;;3.40;2.90;;;15.70;94.30;;;;;;6339331;22;20073;-87
2023/05/15 02:47:50;;;;;;;4.43;2.85;;;15.70;94.30;;;;;;6338624;22;20010;-88
2023/05/15 02:50:17;;;;;;;4.88;3.10;;;15.70;94.30;;;;;;6338968;22;19998;-89
2023/05/15 02:52:43;;;;;;;4.00;3.25;;;15.70;94.30;;;;;;6338883;22;20378;-87
2023/05/15 02:55:09;;;;;;;4.20;3.13;;;15.70;94.30;;;;;;6338540;22;19995;-86
2023/05/15 02:57:34;;;;;;;3.63;3.33;;;15.70;94.30;;;;;;6339366;22;20003;-85
2023/05/15 03:00:01;;;;;;;3.80;3.40;;;15.60;94.40;;;;;;6338430;22;20003;-85
2023/05/15 03:02:27;;;;;;;3.97;3.50;;;15.70;94.40;;;;;;6338654;22;20037;-84
2023/05/15 03:04:52;;;;;;;5.35;3.47;;;15.70;94.40;;;;;;6338350;22;20003;-84
2023/05/15 03:07:18;;;;;;;3.40;3.10;;;15.70;94.40;;;;;;6338591;22;20007;-85
2023/05/15 03:09:44;;;;;;;4.85;3.33;;;15.70;94.40;;;;;;6338269;22;20070;-84
2023/05/15 03:12:09;;;;;;;4.63;3.20;;;15.60;94.40;;;;;;6310742;22;20006;-84
2023/05/15 03:14:35;;;;;;;3.33;3.03;;;15.60;94.40;;;;;;6338750;22;20037;-84
2023/05/15 03:17:01;;;;;;;4.45;3.58;;;15.60;94.50;;;;;;6339129;22;20033;-85
2023/05/15 03:19:27;;;;;;;5.63;3.70;;;15.60;94.50;;;;;;6338110;22;20040;-83
2023/05/15 03:21:53;;;;;;;4.70;3.78;;;15.60;94.50;;;;;;6338859;22;19998;-83
2023/05/15 03:24:18;;;;;;;3.45;3.10;;;15.60;94.50;;;;;;6311383;22;19995;-83
2023/05/15 03:26:44;;;;;;;6.13;3.78;;;15.70;94.50;;;;;;6339056;22;20006;-83
2023/05/15 03:29:10;;;;;;;4.53;4.07;;;15.70;94.50;;;;;;6310867;22;20040;-85
2023/05/15 03:31:36;;;;;;;4.60;4.20;;;15.70;94.50;;;;;;6338018;22;20017;-84
2023/05/15 03:34:01;;;;;;;6.18;3.75;;;15.70;94.50;;;;;;6339412;22;20003;-85
2023/05/15 03:36:27;;;;;;;4.53;3.78;;;15.70;94.50;;;;;;6339339;22;19994;-85
2023/05/15 03:38:52;;;;;;;5.03;4.30;;;15.70;94.50;;;;;;6310291;22;20032;-85
2023/05/15 03:41:18;;;;;;;4.82;4.30;;;15.70;94.50;;;;;;6337838;22;20420;-86
2023/05/15 03:43:44;;;;;;;5.88;5.13;;;15.60;94.50;;;;;;6338778;22;20328;-86
2023/05/15 03:46:10;;;;;;;4.85;4.32;;;15.70;94.50;;;;;;6312195;22;20152;-86
2023/05/15 03:48:35;;;;;;;6.82;5.10;;;15.60;94.40;;;;;;6339558;22;20428;-87
2023/05/15 03:51:01;;;;;;;5.30;4.78;;;15.60;94.40;;;;;;6316160;22;20061;-87
2023/05/15 03:53:27;;;;;;;5.70;5.10;;;15.60;94.40;;;;;;6341129;22;19999;-87
2023/05/15 03:55:53;;;;;;;6.68;4.90;;;15.50;94.40;;;;;;6315241;22;19999;-88
2023/05/15 03:58:18;;;;;;;6.85;4.88;;;15.60;94.50;;;;;;6344814;22;19999;-88
2023/05/15 04:00:44;;;;;;;5.05;4.43;;;15.50;94.50;;;;;;6344225;22;20010;-89
2023/05/15 04:03:09;;;;;;;5.38;4.88;;;15.50;94.60;;;;;;6346155;22;19999;-90
2023/05/15 04:05:35;;;;;;;6.20;5.07;;;15.50;94.50;;;;;;6344494;22;20058;-89
2023/05/15 04:08:01;;;;;;;5.13;4.63;;;15.50;94.50;;;;;;6346287;22;20006;-90
2023/05/15 04:10:26;;;;;;;5.50;4.82;;;15.50;94.50;;;;;;6347849;22;19999;-91
2023/05/15 04:12:52;;;;;;;5.40;4.90;;;15.50;94.50;;;;;;6346455;22;19995;-91
2023/05/15 04:15:20;;;;;;;5.38;4.85;;;15.50;94.50;;;;;;6346606;22;20356;-91
2023/05/15 04:17:48;;;;;;;6.35;5.32;;;15.50;94.60;;;;;;6321756;22;20060;-90
2023/05/15 04:20:15;;;;;;;6.88;5.60;;;15.50;94.60;;;;;;6347145;22;20025;-89
2023/05/15 04:22:41;;;;;;;7.57;5.45;;;15.50;94.60;;;;;;6317950;22;20089;-82
2023/05/15 04:25:08;;;;;;;6.05;5.45;;;15.50;94.70;;;;;;6340154;22;20002;-82
2023/05/15 04:27:35;;;;;;;7.03;5.28;;;15.50;94.70;;;;;;6340206;22;20038;-91
2023/05/15 04:30:02;;;;;;;6.00;5.30;;;15.50;94.70;;;;;;6313494;22;19998;-82
2023/05/15 04:32:29;;;;;;;7.40;5.57;;;15.50;94.80;;;;;;6340146;22;20039;-80
2023/05/15 04:34:54;;;;;;;6.43;5.80;;;15.60;94.80;;;;;;6340206;22;20003;-81
2023/05/15 04:37:20;;;;;;;7.18;5.20;;;15.60;94.80;;;;;;6339497;22;20329;-80
2023/05/15 04:39:46;;;;;;;5.78;5.18;;;15.60;94.80;;;;;;6310287;22;20056;-80
2023/05/15 04:42:12;;;;;;;6.75;5.68;;;15.60;94.80;;;;;;6311436;22;20010;-81
2023/05/15 04:44:37;;;;;;;5.78;5.07;;;15.60;94.80;;;;;;6338719;22;20364;-80
2023/05/15 04:47:03;;;;;;;5.97;5.38;;;15.60;94.80;;;;;;6338765;22;20022;-80
2023/05/15 04:49:29;;;;;;;6.50;5.63;;;15.60;94.80;;;;;;6338644;22;20064;-80
2023/05/15 04:51:55;;;;;;;9.85;6.13;;;15.60;94.80;;;;;;6339059;22;19998;-80
2023/05/15 04:54:20;;;;;;;6.72;5.68;;;15.60;94.80;;;;;;6311788;22;20014;-80
2023/05/15 04:56:46;;;;;;;7.03;6.32;;;15.60;94.80;;;;;;6310846;22;20099;-81
2023/05/15 04:59:12;;;;;;;6.30;5.63;;;15.60;94.80;;;;;;6338357;22;20006;-80
2023/05/15 05:01:38;;;;;;;6.90;6.07;;;15.60;94.80;;;;;;6339229;22;20401;-79
2023/05/15 05:04:04;;;;;;;7.00;5.57;;;15.60;94.80;;;;;;6339084;22;20010;-79
2023/05/15 05:06:30;;;;;;;6.13;5.15;;;15.60;94.80;;;;;;6338807;22;20006;-79
2023/05/15 05:08:56;;;;;;;6.93;5.30;;;15.60;94.80;;;;;;6337774;22;20023;-79
2023/05/15 05:11:21;;;;;;;6.40;5.80;;;15.60;94.80;;;;;;6338038;22;20128;-79
2023/05/15 05:13:48;;;;;;;8.30;6.30;;;15.60;94.80;;;;;;6337145;22;20023;-79
2023/05/15 05:16:13;;;;;;;5.93;5.32;;;15.70;94.80;;;;;;6338297;22;20058;-79
2023/05/15 05:18:39;;;;;;;6.47;5.75;;;15.70;94.80;;;;;;6338823;22;20124;-79
2023/05/15 05:21:05;;;;;;;6.03;5.43;;;15.70;94.80;;;;;;6310777;22;20451;-79
2023/05/15 05:23:31;;;;;;;7.07;6.38;;;15.70;94.70;;;;;;6310957;22;20313;-81
2023/05/15 05:25:58;;;;;;;7.15;6.45;;;15.70;94.70;;;;;;6338499;22;20413;-81
2023/05/15 05:28:24;;;;;;;7.80;6.13;;;15.70;94.70;;;;;;6338087;22;20013;-81
2023/05/15 05:30:50;;;;;;;7.25;6.55;;;15.70;94.70;;;;;;6337984;22;20082;-81
2023/05/15 05:33:16;;;;;;;6.97;6.00;;;15.70;94.70;;;;;;6339169;22;20446;-78
2023/05/15 05:35:41;;;;;;;6.80;6.07;;;15.80;94.70;;;;;;6338072;22;19995;-79
2023/05/15 05:38:07;;;;;;;8.45;6.30;;;15.90;94.70;;;;;;6338623;22;20003;-79
2023/05/15 05:40:32;;;;;;;8.15;6.30;;;15.80;94.70;;;;;;6335354;22;20048;-79
2023/05/15 05:43:01;;;;;;;6.30;5.70;;;15.90;94.60;;;;;;6337477;22;19998;-79
2023/05/15 05:45:30;;;;;;;7.93;7.13;;;15.90;94.60;;;;;;6311408;22;20015;-79
2023/05/15 05:47:56;;;;;;;7.55;6.82;;;15.90;94.60;;;;;;6336411;22;20413;-79
2023/05/15 05:50:23;;;;;;;6.82;6.13;;;16.00;94.60;;;;;;6337080;22;20049;-79
2023/05/15 05:52:49;;;;;;;7.68;6.53;;;16.00;94.50;;;;;;6338892;22;20023;-82
2023/05/15 05:55:15;;;;;;;6.60;5.60;;;16.10;94.40;;;;;;6339170;22;20423;-85
2023/05/15 05:57:41;;;;;;;6.95;6.25;;;16.10;94.40;;;;;;6308618;22;20030;-84
2023/05/15 06:00:08;;;;;;;7.30;5.78;;;16.20;94.30;;;;;;6337936;22;20003;-85
2023/05/15 06:02:34;;;;;;;6.35;5.75;;;16.20;94.10;;;;;;6337612;22;20078;-83
2023/05/15 06:05:00;;;;;;;7.25;6.15;;;16.20;94.10;;;;;;6338980;22;20367;-88
2023/05/15 06:07:26;;;;;;;6.63;5.93;;;16.20;94.00;;;;;;6337463;22;19999;-86
2023/05/15 06:09:52;;;;;;;6.28;5.50;;;16.20;94.00;;;;;;6338165;22;20051;-88
2023/05/15 06:12:18;;;;;;;6.68;5.45;;;16.30;94.00;;;;;;6339196;22;20037;-86
2023/05/15 06:14:44;;;;;;;6.03;5.43;;;16.30;94.00;;;;;;6338956;22;20009;-87
2023/05/15 06:17:12;;;;;;;6.60;5.40;;;16.30;94.00;;;;;;6338967;22;19995;-88
2023/05/15 06:19:38;;;;;;;6.93;5.80;;;16.30;93.80;;;;;;6339936;22;20022;-81
2023/05/15 06:22:04;;;;;;;6.93;5.25;;;16.40;93.80;;;;;;6338087;22;20002;-81
2023/05/15 06:24:30;;;;;;;7.82;5.35;;;16.40;93.70;;;;;;6339158;22;20485;-82
2023/05/15 06:26:56;;;;;;;6.80;5.60;;;16.40;93.70;;;;;;6310342;22;20023;-81
2023/05/15 06:29:21;;;;;;;8.35;5.65;;;16.50;93.60;;;;;;6338911;22;20305;-87
2023/05/15 06:31:47;;;;;;;6.45;5.35;;;16.50;93.40;;;;;;6311007;22;20040;-83
2023/05/15 06:34:13;;;;;;;8.27;5.55;;;16.50;93.40;;;;;;6308822;22;20014;-83
2023/05/15 06:36:39;;;;;;;5.45;4.95;;;16.50;93.40;;;;;;6312267;22;20372;-89
2023/05/15 06:39:04;;;;;;;5.35;3.97;;;16.60;93.10;;;;;;6339395;22;20031;-89
2023/05/15 06:41:31;;;;;;;6.43;5.07;;;16.60;93.00;;;;;;6339647;22;20026;-89
2023/05/15 06:43:58;;;;;;;9.02;4.82;;;16.70;93.00;;;;;;6339367;22;20003;-90
2023/05/15 06:46:23;;;;;;;5.25;4.45;;;16.70;92.90;;;;;;6339488;22;19999;-86
2023/05/15 06:48:49;;;;;;;8.90;4.85;;;16.80;93.00;;;;;;6338737;22;20056;-88
2023/05/15 06:51:15;;;;;;;5.18;4.50;;;16.80;92.90;;;;;;6339364;22;20009;-83
2023/05/15 06:53:41;;;;;;;5.70;5.10;;;16.80;92.80;;;;;;6338523;22;20052;-82
2023/05/15 06:56:07;;;;;;;5.82;5.05;;;17.00;92.70;;;;;;6339042;22;20018;-82
2023/05/15 06:58:33;;;;;;;6.05;5.45;;;17.00;92.70;;;;;;6338606;22;20002;-83
2023/05/15 07:01:00;;;;;;;5.88;5.15;;;17.00;92.70;;;;;;6339099;22;19998;-82
2023/05/15 07:03:26;;;;;;;6.15;5.15;;;17.10;92.60;;;;;;6338238;22;20022;-82
2023/05/15 07:05:52;;;;;;;8.30;5.60;;;17.10;92.60;;;;;;6336097;22;19998;-82
2023/05/15 07:08:18;;;;;;;5.53;4.85;;;17.20;92.20;;;;;;6338009;22;20033;-82
2023/05/15 07:10:44;;;;;;;5.00;4.50;;;17.20;92.20;;;;;;6339125;22;20401;-90
2023/05/15 07:13:10;;;;;;;4.80;4.30;;;17.30;92.30;;;;;;6309760;22;19999;-91
2023/05/15 07:15:35;;;;;;;5.22;3.55;;;17.30;92.20;;;;;;6336977;22;19999;-82
2023/05/15 07:18:01;;;;;;;4.82;4.07;;;17.40;92.10;;;;;;6311182;22;20010;-82
2023/05/15 07:20:27;;;;;;;4.00;3.55;;;17.40;91.80;;;;;;6312022;22;20405;-82
2023/05/15 07:22:52;;;;;;;5.60;4.35;;;17.50;91.80;;;;;;6339250;22;20034;-82
2023/05/15 07:25:18;;;;;;;6.28;4.07;;;17.60;91.70;;;;;;6338891;22;20038;-82
2023/05/15 07:27:44;;;;;;;5.60;4.10;;;17.60;91.60;;;;;;6338454;22;20003;-82
2023/05/15 07:30:10;;;;;;;4.90;4.13;;;17.70;91.40;;;;;;6338974;22;19999;-83
2023/05/15 07:32:35;;;;;;;4.97;3.85;;;17.70;91.10;;;;;;6338401;22;20107;-91
2023/05/15 07:35:03;;;;;;;9.07;4.55;;;17.70;91.20;;;;;;6338852;22;19999;-90
2023/05/15 07:37:29;;;;;;;5.35;3.75;;;17.80;91.10;;;;;;6309583;22;20002;-83
2023/05/15 07:39:55;;;;;;;5.40;3.47;;;17.80;91.10;;;;;;6338518;22;20009;-84
2023/05/15 07:42:20;;;;;;;4.57;3.60;;;17.90;90.80;;;;;;6338594;22;20077;-85
2023/05/15 07:44:46;;;;;;;3.75;3.25;;;17.90;90.80;;;;;;6338842;22;20018;-92
2023/05/15 07:47:12;;;;;;;3.95;3.30;;;18.10;90.90;;;;;;6338175;22;20421;-92
2023/05/15 07:49:37;;;;;;;3.90;3.50;;;18.10;90.70;;;;;;6339647;22;20014;-91
2023/05/15 07:52:03;;;;;;;6.57;3.88;;;18.30;90.60;;;;;;6337852;22;19999;-91
2023/05/15 07:54:30;;;;;;;5.88;4.00;;;18.40;90.20;;;;;;6338588;22;19998;-92
2023/05/15 07:56:57;;;;;;;5.68;4.85;;;18.40;90.00;;;;;;6338581;22;20002;-83
2023/05/15 07:59:23;;;;;;;7.28;5.60;;;18.50;89.80;;;;;;6337852;22;19999;-82
2023/05/15 08:01:48;;;;;;;8.07;5.28;;;18.50;89.70;;;;;;6338947;22;20009;-83
2023/05/15 08:04:14;;;;;;;8.77;7.18;;;18.50;89.70;;;;;;6309086;22;20013;-83
2023/05/15 08:06:41;;;;;;;8.55;5.25;;;18.60;89.60;;;;;;6338173;22;20687;-83
2023/05/15 08:09:08;;;;;;;6.88;5.50;;;18.60;89.50;;;;;;6335622;22;20408;-83
2023/05/15 08:11:34;;;;;;;5.32;4.75;;;18.80;89.00;;;;;;6310268;22;20057;-83
2023/05/15 08:14:00;;;;;;;4.95;4.43;;;18.80;88.70;;;;;;6337994;22;19999;-83
2023/05/15 08:16:25;;;;;;;5.78;3.85;;;18.90;88.00;;;;;;6339090;22;19999;-83
2023/05/15 08:18:54;;;;;;;6.50;4.55;;;18.90;87.30;;;;;;6338864;22;20104;-83
2023/05/15 08:21:20;;;;;;;5.38;4.50;;;19.00;87.20;;;;;;6339039;22;20053;-88
2023/05/15 08:23:45;;;;;;;6.40;4.90;;;19.10;87.50;;;;;;6338425;22;20003;-88
2023/05/15 08:26:11;;;;;;;6.63;4.47;;;19.10;87.40;;;;;;6338858;22;20003;-88
2023/05/15 08:28:36;;;;;;;6.53;3.95;;;19.20;87.10;;;;;;6338676;22;20355;-88
2023/05/15 08:31:02;;;;;;;9.48;5.05;;;19.30;87.30;;;;;;6338568;22;20081;-88
2023/05/15 08:33:28;;;;;;;6.95;5.53;;;19.30;87.50;;;;;;6338181;22;20030;-88
2023/05/15 08:35:53;;;;;;;4.82;4.40;;;19.50;86.70;;;;;;6338510;22;19995;-89
2023/05/15 08:38:19;;;;;;;6.30;4.55;;;19.50;86.80;;;;;;6339225;22;20480;-89
2023/05/15 08:40:46;;;;;;;7.88;5.35;;;19.60;86.70;;;;;;6337908;22;20003;-83
2023/05/15 08:43:14;;;;;;;4.80;4.30;;;19.60;84.90;;;;;;6338266;22;20348;-83
2023/05/15 08:45:40;;;;;;;4.60;3.30;;;19.60;86.00;;;;;;6338390;22;20005;-82
2023/05/15 08:48:19;;;;;;;3.70;2.67;;;19.60;86.90;;;;;;6338501;22;20411;-83
2023/05/15 08:50:45;;;;;;;3.72;2.80;;;19.70;86.80;;;;;;6339158;22;19994;-83
2023/05/15 08:53:12;;;;;;;5.47;3.05;;;19.70;86.90;;;;;;6338685;22;19999;-86
2023/05/15 08:55:38;;;;;;;2.85;2.63;;;19.80;87.00;;;;;;6338505;22;19995;-84
2023/05/15 08:58:04;;;;;;;2.90;2.60;;;19.80;86.80;;;;;;6338161;22;20002;-84
2023/05/15 09:00:30;;;;;;;3.13;2.40;;;19.80;86.90;;;;;;6336409;22;20316;-78
2023/05/15 09:03:02;;;;;;;3.10;2.85;;;19.80;86.70;;;;;;6338770;22;20029;-87
2023/05/15 09:05:28;;;;;;;2.40;2.10;;;19.80;86.30;;;;;;6340111;22;20033;-88
2023/05/15 09:07:55;;;;;;;4.85;3.42;;;19.80;86.10;;;;;;6312361;22;20038;-89
2023/05/15 09:10:21;;;;;;;4.25;3.72;;;19.80;86.30;;;;;;6340277;22;20014;-87
2023/05/15 09:12:50;;;;;;;6.13;2.95;;;19.80;86.30;;;;;;6340430;22;19999;-87
2023/05/15 09:15:20;;;;;;;7.13;3.75;;;19.90;86.70;;;;;;6340000;22;19995;-85
2023/05/15 09:17:47;;;;;;;8.68;3.15;;;20.00;86.30;;;;;;6341542;22;20006;-83
2023/05/15 09:20:34;;;;;;;4.97;2.80;;;20.10;86.80;;;;;;6340714;22;20055;-87
2023/05/15 09:23:01;;;;;;;3.17;2.40;;;20.30;86.10;;;;;;6344363;22;20003;-85
2023/05/15 09:25:34;;;;;;;3.80;2.88;;;20.40;85.20;;;;;;6343560;22;19999;-86
2023/05/15 09:28:00;;;;;;;3.50;2.45;;;20.50;85.00;;;;;;6340440;22;20003;-83
2023/05/15 09:30:26;;;;;;;3.17;2.08;;;20.50;84.40;;;;;;6337779;22;20078;-83
2023/05/15 09:32:54;;;;;;;3.90;2.05;;;20.50;84.10;;;;;;6338511;22;19999;-83
2023/05/15 09:35:30;;;;;;;1.63;1.00;;;20.60;84.20;;;;;;6340969;22;20049;-83
2023/05/15 09:37:58;;;;;;;1.13;0.80;;;20.70;81.90;;;;;;6341133;22;20421;-82
2023/05/15 09:40:28;;;;;;;1.85;1.15;;;20.80;81.60;;;;;;6340303;22;20022;-79
2023/05/15 09:42:54;;;;;;;1.08;0.77;;;20.90;80.60;;;;;;6311776;22;20007;-80
2023/05/15 09:45:19;;;;;;;0.90;0.70;;;20.90;80.80;;;;;;6340030;22;20056;-79
2023/05/15 09:47:45;;;;;;;1.58;0.82;;;20.90;80.60;;;;;;6339363;22;20345;-86
2023/05/15 09:50:11;;;;;;;1.40;1.08;;;21.10;80.70;;;;;;6311767;22;20007;-84
2023/05/15 09:52:38;;;;;;;1.95;1.02;;;21.20;81.20;;;;;;6339906;22;19998;-80
2023/05/15 09:55:05;;;;;;;1.35;1.00;;;21.30;81.00;;;;;;6339239;22;20309;-80
2023/05/15 09:57:30;;;;;;;1.58;1.17;;;21.40;80.40;;;;;;6339550;22;20005;-79
2023/05/15 10:00:04;;;;;;;3.00;1.30;;;21.40;80.50;;;;;;6339224;22;20003;-80
2023/05/15 10:02:31;;;;;;;1.40;0.98;;;21.60;80.20;;;;;;6339440;22;20322;-85
2023/05/15 10:04:57;;;;;;;2.88;1.02;;;21.70;80.50;;;;;;6339626;22;20313;-80
2023/05/15 10:07:30;;;;;;;1.90;1.17;;;21.80;80.10;;;;;;6339488;22;20073;-80
2023/05/15 10:09:56;;;;;;;1.10;0.80;;;21.90;78.50;;;;;;6339330;22;20080;-80
2023/05/15 10:12:23;;;;;;;1.20;0.80;;;22.00;78.70;;;;;;6339136;22;20321;-80
2023/05/15 10:14:50;;;;;;;1.13;0.82;;;22.10;78.20;;;;;;6338923;22;20002;-92
2023/05/15 10:17:18;;;;;;;1.08;0.77;;;22.20;78.50;;;;;;6339705;22;19995;-86
2023/05/15 10:19:46;;;;;;;1.08;0.80;;;22.20;78.70;;;;;;6339257;22;20281;-81
2023/05/15 10:22:14;;;;;;;1.50;0.95;;;22.40;78.00;;;;;;6339001;22;20006;-82
2023/05/15 10:24:43;;;;;;;2.22;1.13;;;22.50;77.30;;;;;;6339457;22;20413;-83
2023/05/15 10:27:10;;;;;;;2.50;1.13;;;22.50;77.60;;;;;;6339103;22;20006;-84
2023/05/15 10:29:37;;;;;;;2.58;1.38;;;22.60;77.90;;;;;;6311475;22;19999;-82
2023/05/15 10:32:03;;;;;;;2.65;1.30;;;22.80;77.30;;;;;;6339336;22;20018;-82
2023/05/15 10:34:30;;;;;;;3.60;1.15;;;22.80;76.20;;;;;;6339707;22;19995;-82
2023/05/15 10:36:56;;;;;;;4.95;1.40;;;22.90;76.70;;;;;;6339686;22;20019;-80
2023/05/15 10:39:22;;;;;;;4.35;1.00;;;23.00;77.30;;;;;;6312213;22;20056;-91
2023/05/15 10:41:49;;;;;;;1.98;1.17;;;23.20;76.40;;;;;;6339776;22;20009;-90
2023/05/15 10:44:16;;;;;;;1.88;1.40;;;23.30;76.00;;;;;;6339687;22;20425;-90
2023/05/15 10:46:43;;;;;;;2.08;1.40;;;23.50;75.60;;;;;;6339700;22;20085;-90
2023/05/15 10:49:08;;;;;;;4.13;1.30;;;23.60;75.20;;;;;;6339300;22;20400;-81
2023/05/15 10:51:38;;;;;;;2.38;1.13;;;23.70;74.50;;;;;;6311648;22;20125;-81
2023/05/15 10:54:04;;;;;;;1.80;1.10;;;23.80;73.20;;;;;;6339398;22;20436;-81
2023/05/15 10:56:36;;;;;;;1.50;1.30;;;23.90;73.70;;;;;;6339849;22;19999;-81
2023/05/15 10:59:09;;;;;;;1.88;1.23;;;24.00;73.10;;;;;;6339066;22;20003;-81
2023/05/15 11:01:39;;;;;;;1.98;1.33;;;24.00;72.70;;;;;;6311566;22;20013;-81
2023/05/15 11:04:26;;;;;;;;;;;24.20;72.30;;;;;;6339356;22;20003;-81
2023/05/15 11:07:14;;;;;;;1.63;1.10;;;24.40;71.40;;;;;;6337584;22;19925;-81
2023/05/15 11:09:40;;;;;;;6.13;1.00;;;24.50;72.00;;;;;;6338817;22;20006;-81
2023/05/15 11:12:07;;;;;;;1.35;0.82;;;24.70;71.90;;;;;;6311423;22;20006;-81
2023/05/15 11:15:00;;;;;;;1.42;1.20;;;24.80;72.10;;;;;;6338743;22;20014;-81
2023/05/15 11:17:25;;;;;;;1.95;1.00;;;25.00;71.50;;;;;;6313705;22;20030;-81
2023/05/15 11:19:51;;;;;;;3.13;1.02;;;25.20;69.90;;;;;;6348431;22;20072;-81
2023/05/15 11:22:25;;;;;;;5.75;1.30;;;25.10;69.50;;;;;;6351167;22;19995;-82
2023/05/15 11:24:59;;;;;;;1.35;1.15;;;25.10;69.70;;;;;;6356922;22;19995;-82
2023/05/15 11:27:31;;;;;;;1.45;1.00;;;25.20;69.90;;;;;;6357787;22;20014;-82
2023/05/15 11:30:16;;;;;;;2.72;0.90;;;25.40;69.70;;;;;;6353738;22;20076;-87
2023/05/15 11:32:54;;;;;;;2.42;0.80;;;25.60;69.30;;;;;;6340385;22;20018;-86
2023/05/15 11:35:28;;;;;;;2.38;0.93;;;25.80;69.10;;;;;;6340234;22;20006;-86
2023/05/15 11:37:54;;;;;;;2.55;0.88;;;26.00;68.60;;;;;;6340131;22;20014;-87
2023/05/15 11:40:29;;;;;;;1.05;0.90;;;26.00;67.60;;;;;;6339537;22;20413;-91
2023/05/15 11:43:02;;;;;;;1.15;0.82;;;26.00;67.10;;;;;;6339830;22;19999;-92
2023/05/15 11:45:30;;;;;;;1.25;0.77;;;25.70;66.60;;;;;;6339832;22;20006;-92
2023/05/15 11:47:58;;;;;;;1.33;0.80;;;25.50;67.40;;;;;;6340490;22;20077;-91
2023/05/15 11:50:24;;;;;;;2.03;0.90;;;25.50;68.10;;;;;;6343288;22;20023;-87
2023/05/15 11:52:51;;;;;;;1.02;0.70;;;25.50;67.80;;;;;;6350327;22;20005;-90
2023/05/15 11:55:18;;;;;;;1.95;0.60;;;25.50;67.90;;;;;;6320521;22;19999;-89
2023/05/15 11:57:47;;;;;;;0.95;0.80;;;25.70;67.70;;;;;;6345058;22;19998;-89
2023/05/15 12:00:13;;;;;;;2.35;0.85;;;25.70;67.80;;;;;;6348699;22;20002;-88
2023/05/15 12:02:39;;;;;;;2.53;0.70;;;25.80;67.00;;;;;;6359442;22;19995;-89
2023/05/15 12:05:08;;;;;;;1.20;0.75;;;26.10;67.70;;;;;;6355680;22;19995;-89
2023/05/15 12:07:39;;;;;;;2.70;0.80;;;26.40;67.10;;;;;;6358247;22;19999;-89
2023/05/15 12:10:42;;;;;;;2.15;0.68;;;26.60;66.30;;;;;;6355048;22;19998;-82
2023/05/15 12:13:24;;;;;;;1.00;0.77;;;26.90;65.60;;;;;;6317322;22;19999;-92
2023/05/15 12:15:50;;;;;;;2.28;0.70;;;26.80;65.10;;;;;;6338902;22;19995;-93
2023/05/15 12:18:16;;;;;;;1.08;0.70;;;26.60;65.00;;;;;;6338733;22;20006;-92
2023/05/15 12:20:45;;;;;;;1.23;0.68;;;26.60;65.10;;;;;;6338071;22;20310;-92
2023/05/15 12:23:14;;;;;;;1.10;0.60;;;26.80;64.40;;;;;;6338151;22;20013;-93
2023/05/15 12:25:41;;;;;;;0.57;0.50;;;27.10;64.10;;;;;;6310752;22;20030;-93
2023/05/15 12:28:07;;;;;;;0.93;0.63;;;27.30;63.70;;;;;;6334429;22;20053;-91
2023/05/15 12:30:34;;;;;;;0.90;0.70;;;27.50;63.20;;;;;;6337703;22;20011;-93
2023/05/15 12:33:08;;;;;;;0.80;0.50;;;27.70;62.70;;;;;;6339722;22;20045;-86
2023/05/15 12:35:42;;;;;;;0.98;0.70;;;27.90;61.90;;;;;;6338466;22;20007;-84
2023/05/15 12:38:12;;;;;;;1.15;0.60;;;28.10;61.50;;;;;;6339731;22;20364;-84
2023/05/15 12:40:38;;;;;;;0.80;0.50;;;28.10;61.20;;;;;;6340305;22;20006;-84
2023/05/15 12:43:07;;;;;;;0.77;0.52;;;28.20;60.50;;;;;;6344590;22;20005;-85
2023/05/15 12:45:36;;;;;;;0.65;0.40;;;28.30;60.40;;;;;;6341274;22;20401;-84
2023/05/15 12:48:02;;;;;;;0.40;0.40;;;28.40;59.70;;;;;;6340422;22;20670;-84
2023/05/15 12:50:30;;;;;;;1.88;0.70;;;28.50;59.70;;;;;;6311613;22;20006;-84